createdAt,value
2018-11-03T00:01:08.905Z,10.43
2018-11-03T00:03:44.570Z,9.77
2018-11-03T00:06:16.306Z,10.29
2018-11-03T00:08:48.882Z,10.25
2018-11-03T00:11:24.110Z,10.16
2018-11-03T00:13:55.330Z,10.08
2018-11-03T00:16:27.638Z,10.08
2018-11-03T00:18:58.960Z,10.13
2018-11-03T00:21:30.538Z,10.17
2018-11-03T00:24:03.149Z,10.19
2018-11-03T00:26:35.401Z,10.21
2018-11-03T00:29:11.014Z,10.21
2018-11-03T00:31:44.471Z,10.22
2018-11-03T00:34:16.452Z,10.21
2018-11-03T00:36:51.440Z,10.17
2018-11-03T00:39:24.222Z,10.15
2018-11-03T00:41:55.512Z,10.15
2018-11-03T00:44:27.462Z,10.14
2018-11-03T00:47:00.621Z,10.12
2018-11-03T00:49:33.980Z,10.10
2018-11-03T00:52:06.272Z,10.04
2018-11-03T00:54:38.139Z,10.04
2018-11-03T00:57:11.122Z,10.01
2018-11-03T00:59:42.996Z,10.01
2018-11-03T01:02:14.143Z,10.02
2018-11-03T01:04:47.205Z,10.08
2018-11-03T01:07:18.783Z,10.10
2018-11-03T01:09:51.348Z,10.08
2018-11-03T01:12:22.593Z,10.10
2018-11-03T01:14:54.169Z,10.13
2018-11-03T01:17:25.928Z,10.09
2018-11-03T01:19:57.890Z,10.08
2018-11-03T01:22:29.692Z,10.07
2018-11-03T01:25:01.184Z,10.09
2018-11-03T01:27:34.015Z,10.07
2018-11-03T01:30:06.272Z,10.07
2018-11-03T01:32:38.091Z,10.04
2018-11-03T01:35:10.534Z,10.04
2018-11-03T01:37:42.448Z,10.04
2018-11-03T01:40:15.222Z,10.07
2018-11-03T01:42:46.960Z,10.09
2018-11-03T01:45:19.305Z,10.12
2018-11-03T01:47:50.726Z,10.13
2018-11-03T01:50:23.009Z,10.10
2018-11-03T01:52:55.399Z,10.09
2018-11-03T01:55:27.209Z,10.10
2018-11-03T01:57:59.266Z,10.10
2018-11-03T02:00:31.843Z,10.02
2018-11-03T02:03:03.704Z,9.97
2018-11-03T02:05:36.463Z,9.90
2018-11-03T02:08:09.583Z,9.89
2018-11-03T02:10:42.178Z,9.90
2018-11-03T02:13:13.776Z,9.93
2018-11-03T02:15:46.412Z,9.97
2018-11-03T02:18:18.338Z,10.01
2018-11-03T02:20:49.866Z,10.04
2018-11-03T02:23:21.640Z,10.04
2018-11-03T02:25:53.247Z,10.05
2018-11-03T02:28:25.079Z,10.03
2018-11-03T02:30:57.599Z,9.91
2018-11-03T02:33:29.190Z,9.92
2018-11-03T02:36:00.814Z,9.88
2018-11-03T02:38:32.831Z,9.89
2018-11-03T02:41:05.041Z,9.85
2018-11-03T02:43:36.786Z,9.82
2018-11-03T02:46:08.888Z,9.85
2018-11-03T02:48:40.955Z,9.88
2018-11-03T02:51:13.260Z,9.92
2018-11-03T02:53:45.092Z,9.92
2018-11-03T02:56:16.850Z,9.89
2018-11-03T02:58:48.332Z,9.89
2018-11-03T03:01:20.002Z,9.90
2018-11-03T03:03:51.621Z,9.90
2018-11-03T03:06:24.000Z,9.94
2018-11-03T03:08:55.845Z,10.00
2018-11-03T03:11:27.318Z,10.04
2018-11-03T03:13:58.818Z,10.04
2018-11-03T03:16:30.588Z,10.06
2018-11-03T03:19:02.065Z,9.49
2018-11-03T03:21:33.529Z,10.04
2018-11-03T03:24:05.347Z,10.03
2018-11-03T03:26:36.835Z,10.05
2018-11-03T03:29:08.964Z,10.09
2018-11-03T03:31:40.460Z,10.12
2018-11-03T03:34:12.144Z,10.14
2018-11-03T03:36:44.089Z,10.12
2018-11-03T03:39:15.312Z,10.12
2018-11-03T03:41:47.187Z,10.15
2018-11-03T03:44:18.645Z,10.19
2018-11-03T03:46:50.144Z,10.17
2018-11-03T03:49:21.944Z,10.18
2018-11-03T03:51:53.661Z,10.15
2018-11-03T03:54:25.347Z,10.15
2018-11-03T03:56:56.456Z,10.20
2018-11-03T03:59:28.017Z,10.24
2018-11-03T04:01:59.986Z,10.29
2018-11-03T04:04:31.423Z,10.31
2018-11-03T04:07:02.908Z,10.35
2018-11-03T04:09:34.194Z,10.36
2018-11-03T04:12:05.748Z,10.37
2018-11-03T04:14:37.175Z,10.34
2018-11-03T04:17:09.033Z,10.35
2018-11-03T04:19:40.408Z,10.36
2018-11-03T04:22:11.864Z,10.37
2018-11-03T04:24:43.259Z,10.37
2018-11-03T04:27:14.725Z,10.38
2018-11-03T04:29:46.740Z,10.38
2018-11-03T04:32:18.057Z,10.41
2018-11-03T04:34:49.795Z,10.42
2018-11-03T04:37:21.506Z,10.41
2018-11-03T04:39:54.172Z,10.36
2018-11-03T04:42:26.362Z,10.36
2018-11-03T04:44:57.920Z,10.35
2018-11-03T04:47:29.841Z,10.37
2018-11-03T04:50:02.477Z,10.35
2018-11-03T04:52:34.665Z,10.37
2018-11-03T04:58:07.666Z,10.36
2018-11-03T05:00:39.462Z,10.31
2018-11-03T05:03:10.761Z,10.30
2018-11-03T05:05:42.239Z,10.33
2018-11-03T05:08:14.238Z,10.32
2018-11-03T05:10:46.219Z,10.34
2018-11-03T05:13:19.592Z,10.31
2018-11-03T05:15:51.240Z,10.22
2018-11-03T05:18:23.047Z,10.17
2018-11-03T05:20:55.159Z,10.15
2018-11-03T05:23:26.690Z,10.17
2018-11-03T05:25:58.228Z,10.19
2018-11-03T05:28:29.379Z,10.20
2018-11-03T05:31:00.793Z,10.18
2018-11-03T05:33:33.481Z,10.13
2018-11-03T05:36:05.163Z,10.14
2018-11-03T05:38:37.413Z,10.16
2018-11-03T05:41:09.170Z,10.14
2018-11-03T05:43:40.987Z,10.13
2018-11-03T05:46:12.771Z,10.14
2018-11-03T05:48:44.500Z,10.16
2018-11-03T05:51:16.344Z,10.15
2018-11-03T05:53:47.971Z,10.15
2018-11-03T05:56:19.748Z,10.17
2018-11-03T05:58:52.635Z,10.18
2018-11-03T06:01:23.941Z,10.17
2018-11-03T06:03:56.289Z,10.17
2018-11-03T06:06:28.118Z,10.19
2018-11-03T06:08:59.578Z,10.20
2018-11-03T06:11:31.378Z,10.16
2018-11-03T06:14:03.312Z,10.14
2018-11-03T06:16:34.386Z,10.15
2018-11-03T06:19:06.058Z,10.18
2018-11-03T06:21:37.911Z,10.19
2018-11-03T06:24:10.132Z,10.19
2018-11-03T06:26:43.198Z,10.22
2018-11-03T06:29:14.915Z,10.23
2018-11-03T06:31:46.380Z,10.23
2018-11-03T06:34:18.237Z,10.26
2018-11-03T06:36:49.700Z,10.29
2018-11-03T06:39:21.572Z,10.30
2018-11-03T06:41:53.646Z,10.31
2018-11-03T06:44:25.713Z,10.34
2018-11-03T06:46:56.840Z,10.40
2018-11-03T06:49:31.422Z,10.41
2018-11-03T06:52:03.504Z,10.43
2018-11-03T06:54:34.913Z,10.02
2018-11-03T06:57:07.525Z,10.52
2018-11-03T06:59:39.560Z,10.55
2018-11-03T07:02:11.675Z,10.58
2018-11-03T07:04:43.293Z,10.64
2018-11-03T07:07:14.822Z,10.68
2018-11-03T07:09:46.476Z,10.75
2018-11-03T07:12:18.073Z,10.74
2018-11-03T07:14:50.631Z,10.70
2018-11-03T07:17:22.711Z,10.68
2018-11-03T07:19:54.819Z,10.76
2018-11-03T07:22:26.994Z,10.85
2018-11-03T07:24:58.495Z,10.88
2018-11-03T07:27:31.040Z,10.87
2018-11-03T07:30:02.599Z,10.91
2018-11-03T07:32:34.315Z,10.98
2018-11-03T07:35:07.609Z,11.05
2018-11-03T07:37:41.824Z,11.09
2018-11-03T07:40:13.250Z,11.08
2018-11-03T07:42:44.397Z,11.11
2018-11-03T07:45:15.526Z,11.12
2018-11-03T07:47:47.906Z,11.12
2018-11-03T07:50:19.079Z,11.14
2018-11-03T07:52:50.946Z,11.13
2018-11-03T07:55:23.242Z,11.17
2018-11-03T07:57:54.545Z,11.29
2018-11-03T08:00:25.654Z,11.36
2018-11-03T08:02:57.144Z,11.40
2018-11-03T08:05:29.637Z,11.38
2018-11-03T08:08:01.281Z,11.40
2018-11-03T08:10:32.835Z,11.46
2018-11-03T08:13:03.953Z,11.56
2018-11-03T08:15:35.333Z,11.63
2018-11-03T08:18:08.987Z,11.71
2018-11-03T08:20:40.947Z,11.77
2018-11-03T08:23:12.963Z,11.79
2018-11-03T08:25:44.515Z,11.87
2018-11-03T08:28:16.967Z,11.55
2018-11-03T08:30:48.375Z,12.01
2018-11-03T08:33:19.758Z,12.05
2018-11-03T08:35:51.196Z,12.06
2018-11-03T08:38:22.970Z,11.58
2018-11-03T08:40:54.067Z,12.18
2018-11-03T08:43:26.293Z,12.29
2018-11-03T08:45:57.909Z,12.39
2018-11-03T08:48:29.260Z,12.44
2018-11-03T08:51:00.662Z,12.51
2018-11-03T08:53:32.264Z,12.57
2018-11-03T08:56:04.148Z,12.68
2018-11-03T08:58:35.344Z,12.68
2018-11-03T09:01:07.010Z,12.68
2018-11-03T09:03:38.956Z,12.72
2018-11-03T09:06:10.590Z,12.77
2018-11-03T09:08:42.197Z,12.81
2018-11-03T09:11:13.520Z,12.90
2018-11-03T09:13:44.798Z,12.27
2018-11-03T09:16:16.885Z,12.94
2018-11-03T09:18:48.363Z,12.97
2018-11-03T09:21:19.649Z,13.07
2018-11-03T09:23:51.547Z,13.14
2018-11-03T09:26:24.529Z,12.96
2018-11-03T09:28:56.281Z,13.13
2018-11-03T09:31:28.713Z,13.20
2018-11-03T09:34:00.520Z,13.24
2018-11-03T09:36:34.207Z,13.29
2018-11-03T09:39:06.446Z,13.33
2018-11-03T09:41:38.036Z,13.32
2018-11-03T09:44:10.169Z,13.41
2018-11-03T09:46:45.373Z,13.49
2018-11-03T09:49:18.695Z,13.50
2018-11-03T09:51:50.286Z,13.50
2018-11-03T09:54:21.320Z,13.51
2018-11-03T09:56:53.672Z,13.46
2018-11-03T09:59:25.160Z,13.41
2018-11-03T10:01:57.267Z,13.38
2018-11-03T10:04:28.264Z,13.38
2018-11-03T10:06:59.982Z,13.02
2018-11-03T10:09:33.979Z,13.46
2018-11-03T10:12:05.457Z,13.53
2018-11-03T10:14:36.796Z,13.52
2018-11-03T10:17:08.684Z,13.55
2018-11-03T10:19:40.684Z,13.64
2018-11-03T10:22:11.860Z,13.80
2018-11-03T10:24:45.056Z,13.93
2018-11-03T10:27:17.759Z,14.01
2018-11-03T10:29:49.610Z,14.07
2018-11-03T10:32:21.649Z,14.21
2018-11-03T10:34:55.878Z,14.34
2018-11-03T10:37:29.036Z,14.44
2018-11-03T10:40:00.136Z,14.50
2018-11-03T10:42:31.663Z,14.56
2018-11-03T10:45:03.600Z,14.49
2018-11-03T10:47:34.682Z,14.38
2018-11-03T10:50:07.021Z,14.22
2018-11-03T10:52:38.172Z,14.11
2018-11-03T10:55:11.922Z,13.96
2018-11-03T10:57:43.769Z,13.94
2018-11-03T11:00:24.153Z,13.98
2018-11-03T11:03:01.498Z,14.00
2018-11-03T11:05:37.541Z,13.93
2018-11-03T11:08:14.796Z,13.77
2018-11-03T11:10:50.556Z,13.63
2018-11-03T11:13:26.776Z,13.51
2018-11-03T11:15:59.220Z,13.37
2018-11-03T11:18:32.917Z,13.28
2018-11-03T11:21:04.146Z,13.19
2018-11-03T11:23:37.015Z,13.21
2018-11-03T11:26:09.355Z,13.26
2018-11-03T11:28:40.840Z,13.37
2018-11-03T11:31:12.145Z,13.48
2018-11-03T11:33:44.219Z,13.61
2018-11-03T11:36:16.382Z,13.76
2018-11-03T11:38:48.328Z,13.88
2018-11-03T11:41:19.518Z,14.00
2018-11-03T11:43:50.963Z,14.09
2018-11-03T11:46:22.121Z,14.16
2018-11-03T11:48:53.212Z,14.23
2018-11-03T11:51:25.403Z,13.90
2018-11-03T11:53:56.654Z,14.48
2018-11-03T11:56:28.281Z,14.57
2018-11-03T11:58:59.532Z,14.69
2018-11-03T12:01:30.598Z,14.71
2018-11-03T12:04:02.529Z,14.88
2018-11-03T12:06:33.742Z,14.93
2018-11-03T12:09:05.534Z,14.96
2018-11-03T12:11:37.646Z,14.99
2018-11-03T12:14:09.086Z,14.97
2018-11-03T12:16:40.605Z,14.53
2018-11-03T12:19:12.461Z,15.21
2018-11-03T12:21:43.490Z,15.12
2018-11-03T12:24:14.960Z,15.10
2018-11-03T12:26:46.196Z,15.02
2018-11-03T12:29:17.939Z,14.96
2018-11-03T12:31:49.986Z,14.92
2018-11-03T12:34:21.079Z,14.91
2018-11-03T12:36:52.534Z,14.87
2018-11-03T12:39:24.005Z,14.90
2018-11-03T12:41:55.792Z,14.89
2018-11-03T12:44:27.122Z,14.97
2018-11-03T12:46:58.281Z,14.98
2018-11-03T12:49:29.906Z,15.07
2018-11-03T12:52:01.285Z,15.15
2018-11-03T12:54:32.464Z,15.20
2018-11-03T12:57:03.659Z,15.17
2018-11-03T12:59:34.810Z,15.16
2018-11-03T13:04:48.811Z,15.16
2018-11-03T13:07:20.477Z,15.15
2018-11-03T13:09:52.657Z,15.15
2018-11-03T13:12:23.919Z,15.10
2018-11-03T13:15:08.928Z,14.51
2018-11-03T13:17:40.798Z,14.95
2018-11-03T13:20:16.756Z,14.86
2018-11-03T13:22:49.092Z,14.80
2018-11-03T13:25:20.976Z,14.75
2018-11-03T13:27:52.602Z,14.65
2018-11-03T13:30:24.050Z,14.58
2018-11-03T13:32:57.403Z,14.53
2018-11-03T13:35:29.103Z,14.39
2018-11-03T13:38:00.606Z,14.39
2018-11-03T13:40:33.467Z,14.35
2018-11-03T13:43:06.328Z,14.35
2018-11-03T13:45:38.395Z,14.34
2018-11-03T13:48:10.388Z,14.40
2018-11-03T13:50:47.506Z,14.40
2018-11-03T13:53:21.042Z,14.35
2018-11-03T13:55:53.447Z,14.28
2018-11-03T13:58:24.855Z,14.24
2018-11-03T14:00:56.494Z,13.64
2018-11-03T14:03:27.620Z,14.20
2018-11-03T14:05:59.664Z,14.14
2018-11-03T14:08:31.784Z,14.12
2018-11-03T14:11:03.211Z,13.68
2018-11-03T14:13:34.825Z,14.01
2018-11-03T14:16:08.170Z,13.94
2018-11-03T14:18:40.629Z,13.93
2018-11-03T14:21:12.151Z,13.93
2018-11-03T14:23:43.977Z,13.92
2018-11-03T14:26:15.111Z,13.86
2018-11-03T14:28:46.832Z,13.87
2018-11-03T14:31:17.880Z,13.89
2018-11-03T14:33:50.046Z,13.82
2018-11-03T14:36:21.385Z,13.79
2018-11-03T14:38:53.371Z,13.72
2018-11-03T14:41:25.027Z,13.66
2018-11-03T14:43:56.454Z,13.60
2018-11-03T14:46:27.418Z,13.51
2018-11-03T14:48:58.820Z,13.43
2018-11-03T14:51:30.523Z,13.36
2018-11-03T14:54:01.849Z,13.27
2018-11-03T14:56:32.920Z,13.21
2018-11-03T14:59:05.299Z,13.13
2018-11-03T15:01:36.442Z,13.08
2018-11-03T15:04:08.474Z,13.05
2018-11-03T15:06:39.918Z,13.03
2018-11-03T15:09:11.294Z,12.98
2018-11-03T15:11:42.602Z,12.89
2018-11-03T15:14:13.863Z,12.79
2018-11-03T15:16:44.922Z,12.72
2018-11-03T15:19:16.276Z,12.69
2018-11-03T15:21:47.682Z,12.65
2018-11-03T15:24:18.922Z,12.56
2018-11-03T15:26:51.259Z,12.47
2018-11-03T15:29:23.209Z,12.38
2018-11-03T15:31:54.518Z,12.30
2018-11-03T15:34:25.935Z,12.21
2018-11-03T15:36:57.263Z,12.11
2018-11-03T15:39:30.034Z,12.03
2018-11-03T15:42:01.229Z,11.72
2018-11-03T15:44:32.489Z,11.81
2018-11-03T15:47:03.956Z,11.70
2018-11-03T15:49:35.614Z,11.58
2018-11-03T15:52:10.148Z,11.48
2018-11-03T15:54:41.892Z,11.37
2018-11-03T15:57:14.440Z,11.26
2018-11-03T15:59:45.428Z,11.15
2018-11-03T16:02:16.929Z,11.05
2018-11-03T16:04:48.554Z,10.95
2018-11-03T16:07:19.826Z,10.83
2018-11-03T16:09:52.022Z,10.74
2018-11-03T16:12:24.363Z,10.65
2018-11-03T16:14:55.552Z,10.56
2018-11-03T16:17:27.080Z,10.49
2018-11-03T16:19:59.029Z,10.45
2018-11-03T16:22:30.858Z,10.42
2018-11-03T16:25:02.754Z,10.43
2018-11-03T16:27:34.626Z,10.44
2018-11-03T16:30:06.571Z,10.45
2018-11-03T16:32:38.685Z,9.83
2018-11-03T16:35:11.230Z,10.50
2018-11-03T16:37:43.009Z,10.53
2018-11-03T16:40:15.978Z,10.52
2018-11-03T16:42:47.989Z,10.51
2018-11-03T16:45:21.070Z,10.49
2018-11-03T16:47:53.549Z,10.42
2018-11-03T16:50:25.722Z,9.94
2018-11-03T16:52:57.038Z,10.31
2018-11-03T16:55:28.558Z,10.27
2018-11-03T16:57:59.607Z,10.22
2018-11-03T17:00:31.371Z,10.20
2018-11-03T17:03:05.491Z,10.15
2018-11-03T17:05:36.738Z,9.70
2018-11-03T17:08:08.942Z,10.12
2018-11-03T17:10:40.409Z,10.15
2018-11-03T17:13:11.779Z,10.16
2018-11-03T17:15:44.661Z,10.17
2018-11-03T17:18:16.855Z,10.18
2018-11-03T17:20:48.673Z,10.18
2018-11-03T17:26:05.547Z,10.21
2018-11-03T17:28:41.399Z,10.28
2018-11-03T17:31:12.957Z,10.34
2018-11-03T17:33:45.453Z,10.40
2018-11-03T17:36:19.079Z,10.47
2018-11-03T17:38:54.710Z,10.53
2018-11-03T17:41:26.680Z,10.57
2018-11-03T17:43:58.478Z,10.66
2018-11-03T17:46:30.329Z,10.72
2018-11-03T17:49:03.248Z,10.77
2018-11-03T17:57:03.124Z,10.90
2018-11-03T17:59:35.231Z,10.90
2018-11-03T18:02:07.262Z,10.94
2018-11-03T18:04:39.699Z,10.96
2018-11-03T18:07:11.824Z,10.42
2018-11-03T18:09:44.808Z,11.02
2018-11-03T18:12:16.722Z,11.04
2018-11-03T18:14:48.587Z,11.07
2018-11-03T18:17:20.614Z,11.07
2018-11-03T18:19:52.286Z,11.10
2018-11-03T18:22:23.851Z,11.12
2018-11-03T18:24:56.322Z,11.13
2018-11-03T18:27:27.544Z,11.11
2018-11-03T18:29:58.781Z,11.10
2018-11-03T18:32:31.514Z,11.15
2018-11-03T18:35:04.027Z,11.14
2018-11-03T18:37:35.901Z,11.14
2018-11-03T18:40:09.071Z,11.15
2018-11-03T18:42:42.225Z,11.13
2018-11-03T18:45:14.908Z,11.13
2018-11-03T18:47:46.930Z,11.15
2018-11-03T18:50:19.330Z,10.69
2018-11-03T18:52:52.802Z,10.95
2018-11-03T18:55:26.356Z,11.16
2018-11-03T18:57:58.993Z,11.12
2018-11-03T19:00:31.150Z,11.12
2018-11-03T19:03:05.645Z,11.15
2018-11-03T19:05:39.465Z,10.61
2018-11-03T19:08:13.795Z,11.19
2018-11-03T19:10:47.666Z,11.18
2018-11-03T19:13:20.750Z,11.19
2018-11-03T19:15:53.585Z,11.19
2018-11-03T19:18:26.700Z,11.18
2018-11-03T19:21:07.210Z,11.21
2018-11-03T19:23:48.764Z,11.24
2018-11-03T19:26:24.846Z,11.23
2018-11-03T19:28:59.060Z,11.22
2018-11-03T19:31:33.761Z,11.22
2018-11-03T19:34:07.326Z,11.24
2018-11-03T19:36:40.677Z,11.24
2018-11-03T19:39:13.337Z,11.20
2018-11-03T19:41:45.964Z,11.23
2018-11-03T19:44:18.418Z,11.24
2018-11-03T19:46:51.920Z,11.24
2018-11-03T19:49:26.671Z,11.22
2018-11-03T19:51:59.210Z,11.24
2018-11-03T19:54:34.855Z,11.23
2018-11-03T19:57:08.872Z,10.54
2018-11-03T19:59:43.432Z,10.60
2018-11-03T20:02:20.324Z,11.23
2018-11-03T20:04:55.049Z,11.22
2018-11-03T20:07:28.173Z,11.20
2018-11-03T20:10:01.390Z,11.20
2018-11-03T20:12:37.421Z,11.21
2018-11-03T20:15:16.019Z,11.22
2018-11-03T20:17:50.508Z,10.78
2018-11-03T20:20:24.719Z,11.19
2018-11-03T20:22:59.652Z,11.18
2018-11-03T20:25:35.372Z,11.18
2018-11-03T20:28:09.991Z,11.19
2018-11-03T20:30:54.071Z,11.19
2018-11-03T20:33:27.619Z,10.49
2018-11-03T20:36:03.792Z,11.16
2018-11-03T20:38:37.736Z,10.79
2018-11-03T20:41:14.443Z,11.15
2018-11-03T20:43:54.394Z,11.16
2018-11-03T20:46:29.346Z,11.16
2018-11-03T20:49:03.902Z,11.15
2018-11-03T20:51:38.754Z,11.15
2018-11-03T20:54:11.771Z,11.12
2018-11-03T20:56:44.305Z,11.13
2018-11-03T20:59:16.494Z,11.14
2018-11-03T21:01:48.148Z,11.15
2018-11-03T21:04:21.987Z,11.15
2018-11-03T21:06:53.955Z,11.17
2018-11-03T21:09:26.622Z,11.22
2018-11-03T21:12:00.089Z,11.20
2018-11-03T21:14:32.956Z,11.23
2018-11-03T21:17:07.708Z,11.23
2018-11-03T21:19:41.134Z,11.24
2018-11-03T21:22:17.503Z,11.26
2018-11-03T21:24:51.021Z,11.22
2018-11-03T21:27:25.121Z,11.24
2018-11-03T21:29:58.294Z,11.23
2018-11-03T21:32:33.382Z,11.21
2018-11-03T21:35:06.499Z,11.23
2018-11-03T21:37:40.493Z,11.24
2018-11-03T21:40:14.506Z,11.26
2018-11-03T21:42:49.794Z,11.25
2018-11-03T21:45:23.777Z,11.26
2018-11-03T21:47:54.958Z,11.32
2018-11-03T21:50:38.066Z,11.34
2018-11-03T21:53:26.542Z,11.34
2018-11-03T21:56:10.943Z,11.34
2018-11-03T21:58:53.488Z,11.34
2018-11-03T22:01:36.873Z,11.22
2018-11-03T22:04:27.917Z,11.30
2018-11-03T22:07:21.440Z,11.29
2018-11-03T22:09:52.537Z,11.29
2018-11-03T22:12:39.352Z,11.28
2018-11-03T22:18:10.595Z,11.20
2018-11-03T22:20:49.212Z,11.22
2018-11-03T22:23:37.140Z,10.80
2018-11-03T22:26:13.340Z,11.24
2018-11-03T22:28:57.418Z,11.25
2018-11-03T22:31:29.468Z,10.70
2018-11-03T22:34:02.151Z,11.22
2018-11-03T22:36:35.075Z,11.22
2018-11-03T22:39:09.124Z,10.63
2018-11-03T22:41:40.872Z,11.16
2018-11-03T22:44:14.001Z,11.15
2018-11-03T22:46:45.551Z,11.17
2018-11-03T22:49:18.312Z,11.17
2018-11-03T22:52:03.279Z,11.15
2018-11-03T22:54:38.778Z,11.12
2018-11-03T22:59:59.702Z,11.07
2018-11-03T23:02:39.777Z,11.04
2018-11-03T23:05:26.673Z,10.63
2018-11-03T23:08:10.733Z,11.00
2018-11-03T23:10:58.746Z,10.35
2018-11-03T23:13:34.228Z,10.90
2018-11-03T23:16:19.016Z,10.86
2018-11-03T23:18:55.400Z,10.89
2018-11-03T23:21:40.306Z,10.91
2018-11-03T23:24:22.067Z,10.92
2018-11-03T23:27:00.709Z,10.97
2018-11-03T23:32:21.022Z,11.02
2018-11-03T23:34:53.484Z,11.03
2018-11-03T23:37:25.425Z,11.04
2018-11-03T23:39:57.193Z,11.02
2018-11-03T23:42:28.323Z,11.04
2018-11-03T23:45:00.910Z,11.04
2018-11-03T23:47:33.126Z,10.99
2018-11-03T23:50:16.223Z,10.99
2018-11-03T23:52:54.785Z,10.97
2018-11-03T23:55:35.028Z,11.00
2018-11-03T23:58:13.250Z,10.98
